Погода Калитвенскаяна 2 недели

Ростовская область, Россия

21 мая-03 июня
  • 21мая
    Сегодня
    +12°
    +26°
    Небольшая облачность
    ВремяПогодаТемператураВлажностьДавлениеВетер, м/сВероятность осадков
    00:00Ясно и безоблачно+13°C69 %753 мм2.5 м/с2 %
    03:00Ясно и безоблачно+13°C68 %753 мм0.5 м/с2 %
    06:00Ясно и безоблачно+12°C73 %754 мм0.8 м/с2 %
    09:00Ясно и безоблачно+21°C46 %755 мм0.8 м/с2 %
    12:00Облачно с прояснениями+25°C29 %755 мм1.2 м/с2 %
    15:00Небольшая облачность+25°C29 %754 мм1.2 м/с2 %
    18:00Ясно и безоблачно+25°C30 %753 мм0.5 м/с2 %
    21:00Ясно и безоблачно+17°C55 %753 мм2.7 м/с2 %
  • 22мая
    Среда
    +10°
    +28°
    Ясно и безоблачно
    ВремяПогодаТемператураВлажностьДавлениеВетер, м/сВероятность осадков
    00:00Ясно и безоблачно+14°C58 %753 мм2.0 м/с2 %
    03:00Практически безоблачно+13°C61 %753 мм1.6 м/с2 %
    06:00Ясно и безоблачно+13°C65 %753 мм0.7 м/с2 %
    09:00Ясно и безоблачно+23°C36 %754 мм0.9 м/с2 %
    12:00Практически безоблачно+27°C23 %753 мм2.4 м/с2 %
    15:00Ясно и безоблачно+27°C22 %752 мм2.3 м/с2 %
    18:00Ясно и безоблачно+26°C27 %751 мм2.2 м/с2 %
    21:00Ясно и безоблачно+19°C35 %752 мм2.3 м/с2 %
  • 23мая
    Четверг
    +11°
    +28°
    Практически безоблачно
    ВремяПогодаТемператураВлажностьДавлениеВетер, м/сВероятность осадков
    00:00Ясно и безоблачно+14°C50 %751 мм2.2 м/с2 %
    03:00Ясно и безоблачно+12°C58 %751 мм2.5 м/с2 %
    06:00Ясно и безоблачно+13°C58 %752 мм1.4 м/с2 %
    09:00Ясно и безоблачно+23°C40 %752 мм1.1 м/с2 %
    12:00Ясно и безоблачно+27°C24 %752 мм3.1 м/с2 %
    15:00Практически безоблачно+28°C24 %751 мм3.0 м/с19 %
    18:00Небольшая облачность+23°C41 %752 мм5.9 м/с23 %
    21:00Ясно и безоблачно+19°C56 %753 мм4.9 м/с2 %
  • 24мая
    Пятница
    +8°
    +23°
    Ясно и безоблачно
    ВремяПогодаТемператураВлажностьДавлениеВетер, м/сВероятность осадков
    00:00Ясно и безоблачно+17°C64 %754 мм5.0 м/с2 %
    03:00Ясно и безоблачно+14°C47 %755 мм6.6 м/с2 %
    06:00Ясно и безоблачно+12°C40 %756 мм6.0 м/с2 %
    09:00Ясно и безоблачно+17°C34 %757 мм6.5 м/с2 %
    12:00Ясно и безоблачно+21°C30 %758 мм6.9 м/с2 %
    15:00Ясно и безоблачно+22°C22 %757 мм7.1 м/с2 %
    18:00Ясно и безоблачно+21°C22 %757 мм7.0 м/с2 %
    21:00Ясно и безоблачно+16°C26 %758 мм5.6 м/с2 %
  • 25мая
    Суббота
    +11°
    +22°
    Ясно и безоблачно
    ВремяПогодаТемператураВлажностьДавлениеВетер, м/сВероятность осадков
    00:00Ясно и безоблачно+13°C31 %759 мм5.5 м/с2 %
    03:00Ясно и безоблачно+10°C37 %759 мм5.3 м/с2 %
    06:00Ясно и безоблачно+10°C41 %760 мм5.3 м/с2 %
    09:00Ясно и безоблачно+16°C30 %760 мм6.9 м/с2 %
    12:00Ясно и безоблачно+20°C21 %759 мм7.4 м/с2 %
    15:00Ясно и безоблачно+22°C21 %758 мм7.4 м/с2 %
    18:00Облачно с прояснениями+21°C21 %757 мм6.9 м/с2 %
    21:00Облачно с прояснениями+18°C25 %757 мм5.0 м/с2 %
Мы используем cookies
Соглашаюсь